createdAt,value
2018-09-20T00:00:35.881Z,19.15
2018-09-20T00:01:35.857Z,19.16
2018-09-20T00:02:35.878Z,19.18
2018-09-20T00:03:35.891Z,19.14
2018-09-20T00:04:35.863Z,19.16
2018-09-20T00:05:35.831Z,19.14
2018-09-20T00:06:35.930Z,19.08
2018-09-20T00:07:35.770Z,19.08
2018-09-20T00:08:35.758Z,19.02
2018-09-20T00:09:35.766Z,19.04
2018-09-20T00:10:35.738Z,19.00
2018-09-20T00:11:35.724Z,19.02
2018-09-20T00:12:35.877Z,19.00
2018-09-20T00:13:35.704Z,18.99
2018-09-20T00:14:35.693Z,18.95
2018-09-20T00:15:35.707Z,18.90
2018-09-20T00:16:35.730Z,18.96
2018-09-20T00:17:35.657Z,18.96
2018-09-20T00:18:35.645Z,18.90
2018-09-20T00:19:35.666Z,18.98
2018-09-20T00:20:35.626Z,18.98
2018-09-20T00:21:35.777Z,18.93
2018-09-20T00:22:35.630Z,18.98
2018-09-20T00:23:35.591Z,18.92
2018-09-20T00:24:35.731Z,18.90
2018-09-20T00:25:35.569Z,18.89
2018-09-20T00:26:35.557Z,18.86
2018-09-20T00:27:35.546Z,18.89
2018-09-20T00:28:35.736Z,18.89
2018-09-20T00:29:35.525Z,18.90
2018-09-20T00:30:35.517Z,18.86
2018-09-20T00:31:35.519Z,18.81
2018-09-20T00:32:35.629Z,18.81
2018-09-20T00:33:35.483Z,18.81
2018-09-20T00:34:35.479Z,18.81
2018-09-20T00:35:35.501Z,18.81
2018-09-20T00:36:35.466Z,18.74
2018-09-20T00:37:35.435Z,18.78
2018-09-20T00:38:35.447Z,18.81
2018-09-20T00:39:35.414Z,18.80
2018-09-20T00:40:35.402Z,18.71
2018-09-20T00:41:35.392Z,18.78
2018-09-20T00:42:35.391Z,18.59
2018-09-20T00:43:35.386Z,18.70
2018-09-20T00:44:35.421Z,18.75
2018-09-20T00:45:35.346Z,18.62
2018-09-20T00:46:35.335Z,18.58
2018-09-20T00:47:35.330Z,18.63
2018-09-20T00:48:35.329Z,18.56
2018-09-20T00:49:35.305Z,18.56
2018-09-20T00:50:35.322Z,18.59
2018-09-20T00:51:35.281Z,18.65
2018-09-20T00:52:35.265Z,18.55
2018-09-20T00:53:35.261Z,18.56
2018-09-20T00:54:35.244Z,18.53
2018-09-20T00:55:35.314Z,18.50
2018-09-20T00:56:35.242Z,18.43
2018-09-20T00:57:35.215Z,18.47
2018-09-20T00:58:35.200Z,18.41
2018-09-20T00:59:35.190Z,18.49
2018-09-20T01:00:35.262Z,18.43
2018-09-20T01:02:49.311Z,18.49
2018-09-20T01:03:49.469Z,18.38
2018-09-20T01:04:49.410Z,18.41
2018-09-20T01:05:49.280Z,18.45
2018-09-20T01:06:49.472Z,18.44
2018-09-20T01:07:49.218Z,18.41
2018-09-20T01:08:49.213Z,18.37
2018-09-20T01:09:49.191Z,18.35
2018-09-20T01:10:49.211Z,18.35
2018-09-20T01:11:49.343Z,18.25
2018-09-20T01:12:49.197Z,18.35
2018-09-20T01:13:49.174Z,18.31
2018-09-20T01:14:49.292Z,18.33
2018-09-20T01:15:49.125Z,18.23
2018-09-20T01:16:49.114Z,18.23
2018-09-20T01:17:49.098Z,18.37
2018-09-20T01:18:49.090Z,18.22
2018-09-20T01:19:49.291Z,18.22
2018-09-20T01:20:49.067Z,18.23
2018-09-20T01:21:49.196Z,18.26
2018-09-20T01:22:49.046Z,18.22
2018-09-20T01:23:49.031Z,18.25
2018-09-20T01:24:49.036Z,18.23
2018-09-20T01:25:49.008Z,18.28
2018-09-20T01:26:48.999Z,18.15
2018-09-20T01:27:59.527Z,18.08
2018-09-20T01:28:48.989Z,18.08
2018-09-20T01:29:48.991Z,18.04
2018-09-20T01:30:49.007Z,18.05
2018-09-20T01:31:49.029Z,18.00
2018-09-20T01:32:48.930Z,18.08
2018-09-20T01:33:48.969Z,18.05
2018-09-20T01:34:48.910Z,17.97
2018-09-20T01:35:48.902Z,17.95
2018-09-20T01:36:48.896Z,17.89
2018-09-20T01:37:48.876Z,17.95
2018-09-20T01:39:00.047Z,17.97
2018-09-20T01:39:49.046Z,17.86
2018-09-20T01:40:48.874Z,17.89
2018-09-20T01:41:48.926Z,17.87
2018-09-20T01:42:48.832Z,17.89
2018-09-20T01:43:48.899Z,17.92
2018-09-20T01:44:48.831Z,17.89
2018-09-20T01:45:48.787Z,17.89
2018-09-20T01:46:48.839Z,17.89
2018-09-20T01:47:48.842Z,17.85
2018-09-20T01:48:48.759Z,17.86
2018-09-20T01:49:49.011Z,17.86
2018-09-20T01:50:48.830Z,17.94
2018-09-20T01:51:48.816Z,17.83
2018-09-20T01:52:48.839Z,17.92
2018-09-20T01:53:48.872Z,17.89
2018-09-20T01:54:48.817Z,17.86
2018-09-20T01:55:48.867Z,17.86
2018-09-20T01:56:48.926Z,17.80
2018-09-20T01:57:48.658Z,17.80
2018-09-20T01:58:48.647Z,17.80
2018-09-20T01:59:48.674Z,17.79
2018-09-20T02:00:48.628Z,17.83
2018-09-20T02:01:48.611Z,17.80
2018-09-20T02:02:48.621Z,17.83
2018-09-20T02:03:48.768Z,17.80
2018-09-20T02:04:48.576Z,17.82
2018-09-20T02:05:48.571Z,17.74
2018-09-20T02:06:48.648Z,17.79
2018-09-20T02:07:48.544Z,17.70
2018-09-20T02:08:48.551Z,17.71
2018-09-20T02:09:48.564Z,17.72
2018-09-20T02:10:48.510Z,17.64
2018-09-20T02:11:48.500Z,17.70
2018-09-20T02:12:48.487Z,17.79
2018-09-20T02:13:48.698Z,17.74
2018-09-20T02:14:48.547Z,17.78
2018-09-20T02:15:48.458Z,17.79
2018-09-20T02:16:48.457Z,17.71
2018-09-20T02:17:48.435Z,17.76
2018-09-20T02:18:48.531Z,17.72
2018-09-20T02:19:48.410Z,17.80
2018-09-20T02:20:48.415Z,17.80
2018-09-20T02:21:56.016Z,17.71
2018-09-20T02:22:48.504Z,17.71
2018-09-20T02:23:48.357Z,17.57
2018-09-20T02:24:48.373Z,17.72
2018-09-20T02:25:48.356Z,17.57
2018-09-20T02:26:48.354Z,17.71
2018-09-20T02:27:48.317Z,17.67
2018-09-20T02:28:48.302Z,17.76
2018-09-20T02:29:48.309Z,17.63
2018-09-20T02:30:48.282Z,17.63
2018-09-20T02:31:48.297Z,17.56
2018-09-20T02:32:48.432Z,17.57
2018-09-20T02:33:48.293Z,17.57
2018-09-20T02:34:48.324Z,17.57
2018-09-20T02:35:48.362Z,17.57
2018-09-20T02:36:48.211Z,17.60
2018-09-20T02:37:48.216Z,17.60
2018-09-20T02:38:48.202Z,17.54
2018-09-20T02:39:48.182Z,17.45
2018-09-20T02:40:48.193Z,17.42
2018-09-20T02:41:48.162Z,17.56
2018-09-20T02:42:56.284Z,17.51
2018-09-20T02:43:48.187Z,17.54
2018-09-20T02:44:48.150Z,17.52
2018-09-20T02:45:48.164Z,17.54
2018-09-20T02:46:48.170Z,17.56
2018-09-20T02:47:48.091Z,17.56
2018-09-20T02:48:48.110Z,17.51
2018-09-20T02:49:48.067Z,17.49
2018-09-20T02:50:48.055Z,17.54
2018-09-20T02:51:48.180Z,17.54
2018-09-20T02:52:48.125Z,17.56
2018-09-20T02:53:48.028Z,17.52
2018-09-20T02:54:48.027Z,17.48
2018-09-20T02:55:48.077Z,17.48
2018-09-20T02:56:47.987Z,17.56
2018-09-20T02:57:47.992Z,17.51
2018-09-20T02:58:48.055Z,17.59
2018-09-20T02:59:47.954Z,17.64
2018-09-20T03:00:47.946Z,17.59
2018-09-20T03:01:47.948Z,17.59
2018-09-20T03:02:47.930Z,17.56
2018-09-20T03:03:48.003Z,17.51
2018-09-20T03:04:47.909Z,17.52
2018-09-20T03:05:47.887Z,17.48
2018-09-20T03:06:47.930Z,17.52
2018-09-20T03:07:47.861Z,17.52
2018-09-20T03:08:47.891Z,17.59
2018-09-20T03:09:47.872Z,17.57
2018-09-20T03:10:47.842Z,17.59
2018-09-20T03:11:47.816Z,17.46
2018-09-20T03:12:47.807Z,17.48
2018-09-20T03:13:47.792Z,17.54
2018-09-20T03:14:47.833Z,17.51
2018-09-20T03:15:47.775Z,17.54
2018-09-20T03:16:47.762Z,17.52
2018-09-20T03:17:47.877Z,17.57
2018-09-20T03:18:47.792Z,17.39
2018-09-20T03:19:47.734Z,17.39
2018-09-20T03:20:47.732Z,17.41
2018-09-20T03:21:47.705Z,17.41
2018-09-20T03:22:47.727Z,17.30
2018-09-20T03:23:47.684Z,17.27
2018-09-20T03:24:47.739Z,17.24
2018-09-20T03:25:58.218Z,17.31
2018-09-20T03:26:47.686Z,17.23
2018-09-20T03:27:47.731Z,17.16
2018-09-20T03:28:47.677Z,17.20
2018-09-20T03:29:47.727Z,17.15
2018-09-20T03:30:47.675Z,17.08
2018-09-20T03:31:47.611Z,17.09
2018-09-20T03:32:47.690Z,17.11
2018-09-20T03:33:47.574Z,17.19
2018-09-20T03:34:47.558Z,17.14
2018-09-20T03:35:47.616Z,17.11
2018-09-20T03:38:01.568Z,17.11
2018-09-20T03:39:01.420Z,17.08
2018-09-20T03:40:01.532Z,17.02
2018-09-20T03:41:01.444Z,17.06
2018-09-20T03:42:01.417Z,17.06
2018-09-20T03:43:01.425Z,16.96
2018-09-20T03:44:01.372Z,16.91
2018-09-20T03:45:01.373Z,16.93
2018-09-20T03:46:01.327Z,16.90
2018-09-20T03:47:01.375Z,16.83
2018-09-20T03:48:01.307Z,16.86
2018-09-20T03:49:01.300Z,16.84
2018-09-20T03:50:01.377Z,16.89
2018-09-20T03:51:01.269Z,16.87
2018-09-20T03:52:01.259Z,16.89
2018-09-20T03:53:01.278Z,16.86
2018-09-20T03:54:01.264Z,16.83
2018-09-20T03:55:10.407Z,16.84
2018-09-20T03:56:01.319Z,16.79
2018-09-20T03:57:01.348Z,16.86
2018-09-20T03:58:01.249Z,16.84
2018-09-20T03:59:01.312Z,16.87
2018-09-20T04:00:01.204Z,16.87
2018-09-20T04:01:01.181Z,16.94
2018-09-20T04:02:01.154Z,16.81
2018-09-20T04:03:01.135Z,16.90
2018-09-20T04:04:01.124Z,16.87
2018-09-20T04:05:01.139Z,16.86
2018-09-20T04:06:01.205Z,16.89
2018-09-20T04:07:01.112Z,16.89
2018-09-20T04:08:01.089Z,16.86
2018-09-20T04:09:01.233Z,16.97
2018-09-20T04:10:01.101Z,16.96
2018-09-20T04:11:01.064Z,16.84
2018-09-20T04:12:01.039Z,16.97
2018-09-20T04:13:10.544Z,16.97
2018-09-20T04:14:01.047Z,16.87
2018-09-20T04:15:01.009Z,16.87
2018-09-20T04:16:01.009Z,17.02
2018-09-20T04:17:01.010Z,17.04
2018-09-20T04:18:00.974Z,16.94
2018-09-20T04:19:01.002Z,16.91
2018-09-20T04:20:00.991Z,16.97
2018-09-20T04:21:01.111Z,16.93
2018-09-20T04:22:01.052Z,17.04
2018-09-20T04:23:00.917Z,16.91
2018-09-20T04:24:00.922Z,17.02
2018-09-20T04:25:00.903Z,17.11
2018-09-20T04:26:00.963Z,17.06
2018-09-20T04:27:00.872Z,17.11
2018-09-20T04:28:00.860Z,17.04
2018-09-20T04:29:00.892Z,17.05
2018-09-20T04:30:01.001Z,17.02
2018-09-20T04:31:00.827Z,17.09
2018-09-20T04:32:08.527Z,17.08
2018-09-20T04:33:00.877Z,17.11
2018-09-20T04:34:00.932Z,17.15
2018-09-20T04:35:00.817Z,17.16
2018-09-20T04:36:00.928Z,17.12
2018-09-20T04:37:00.758Z,17.14
2018-09-20T04:38:00.782Z,17.08
2018-09-20T04:39:00.739Z,17.06
2018-09-20T04:40:00.725Z,17.06
2018-09-20T04:41:00.800Z,17.06
2018-09-20T04:42:00.725Z,17.08
2018-09-20T04:43:00.694Z,17.04
2018-09-20T04:44:00.711Z,17.06
2018-09-20T04:45:08.823Z,17.05
2018-09-20T04:46:00.693Z,16.96
2018-09-20T04:47:00.678Z,16.97
2018-09-20T04:48:00.711Z,16.91
2018-09-20T04:49:00.684Z,16.90
2018-09-20T04:50:00.615Z,16.97
2018-09-20T04:51:00.695Z,16.89
2018-09-20T04:52:00.597Z,16.90
2018-09-20T04:53:00.703Z,16.87
2018-09-20T04:54:00.722Z,16.87
2018-09-20T04:55:00.566Z,16.96
2018-09-20T04:56:00.668Z,16.84
2018-09-20T04:57:00.540Z,16.84
2018-09-20T04:58:00.528Z,16.90
2018-09-20T04:59:10.022Z,16.83
2018-09-20T05:00:00.624Z,16.86
2018-09-20T05:01:00.499Z,16.90
2018-09-20T05:02:00.495Z,16.89
2018-09-20T05:03:00.474Z,16.90
2018-09-20T05:04:00.462Z,16.90
2018-09-20T05:05:00.475Z,16.89
2018-09-20T05:06:00.497Z,16.94
2018-09-20T05:07:00.471Z,16.94
2018-09-20T05:08:00.517Z,16.96
2018-09-20T05:09:00.495Z,16.96
2018-09-20T05:10:00.482Z,16.93
2018-09-20T05:11:00.489Z,16.93
2018-09-20T05:12:00.376Z,16.97
2018-09-20T05:13:00.364Z,16.99
2018-09-20T05:14:00.350Z,16.93
2018-09-20T05:15:00.365Z,17.01
2018-09-20T05:16:00.352Z,17.04
2018-09-20T05:17:00.321Z,17.06
2018-09-20T05:18:00.382Z,17.06
2018-09-20T05:19:00.298Z,17.01
2018-09-20T05:20:00.282Z,17.02
2018-09-20T05:21:00.362Z,17.02
2018-09-20T05:22:00.275Z,17.08
2018-09-20T05:23:00.263Z,17.19
2018-09-20T05:24:00.273Z,17.09
2018-09-20T05:25:00.268Z,17.06
2018-09-20T05:26:00.215Z,17.09
2018-09-20T05:27:00.203Z,17.05
2018-09-20T05:28:00.227Z,17.05
2018-09-20T05:29:08.354Z,17.05
2018-09-20T05:30:00.309Z,17.04
2018-09-20T05:31:00.165Z,17.08
2018-09-20T05:32:00.199Z,17.11
2018-09-20T05:33:00.181Z,17.04
2018-09-20T05:34:00.178Z,17.05
2018-09-20T05:35:00.280Z,17.16
2018-09-20T05:36:00.183Z,17.06
2018-09-20T05:37:00.097Z,17.05
2018-09-20T05:38:00.084Z,17.08
2018-09-20T05:39:00.090Z,17.05
2018-09-20T05:40:00.063Z,17.19
2018-09-20T05:41:00.050Z,17.11
2018-09-20T05:42:00.118Z,17.19
2018-09-20T05:43:00.030Z,17.11
2018-09-20T05:44:00.017Z,17.19
2018-09-20T05:45:00.009Z,17.14
2018-09-20T05:45:59.995Z,17.12
2018-09-20T05:46:59.998Z,17.16
2018-09-20T05:47:59.991Z,17.11
2018-09-20T05:48:59.961Z,17.20
2018-09-20T05:49:59.951Z,17.19
2018-09-20T05:50:59.940Z,17.15
2018-09-20T05:51:59.931Z,17.20
2018-09-20T05:52:59.931Z,17.15
2018-09-20T05:53:59.931Z,17.20
2018-09-20T05:54:59.895Z,17.16
2018-09-20T05:55:59.883Z,17.20
2018-09-20T05:56:59.873Z,17.14
2018-09-20T05:57:59.862Z,17.14
2018-09-20T05:58:59.864Z,17.16
2018-09-20T05:59:59.857Z,17.23
2018-09-20T06:00:59.832Z,17.23
2018-09-20T06:01:59.849Z,17.24
2018-09-20T06:02:59.807Z,17.31
2018-09-20T06:03:59.892Z,17.24
2018-09-20T06:04:59.786Z,17.24
2018-09-20T06:05:59.838Z,17.30
2018-09-20T06:06:59.780Z,17.27
2018-09-20T06:07:59.781Z,17.31
2018-09-20T06:08:59.741Z,17.34
2018-09-20T06:09:59.729Z,17.34
2018-09-20T06:11:09.078Z,17.36
2018-09-20T06:11:59.725Z,17.42
2018-09-20T06:12:59.710Z,17.52
2018-09-20T06:13:59.703Z,17.39
2018-09-20T06:14:59.689Z,17.49
2018-09-20T06:15:59.693Z,17.52
2018-09-20T06:16:59.667Z,17.44
2018-09-20T06:17:59.648Z,17.42
2018-09-20T06:18:59.646Z,17.52
2018-09-20T06:19:59.750Z,17.49
2018-09-20T06:20:59.751Z,17.54
2018-09-20T06:21:59.610Z,17.54
2018-09-20T06:22:59.593Z,17.49
2018-09-20T06:23:59.576Z,17.51
2018-09-20T06:24:59.577Z,17.51
2018-09-20T06:25:59.556Z,17.48
2018-09-20T06:26:59.541Z,17.56
2018-09-20T06:27:59.532Z,17.52
2018-09-20T06:28:59.534Z,17.46
2018-09-20T06:29:59.507Z,17.56
2018-09-20T06:30:59.643Z,17.45
2018-09-20T06:31:59.483Z,17.56
2018-09-20T06:32:59.511Z,17.64
2018-09-20T06:33:59.466Z,17.65
2018-09-20T06:34:59.474Z,17.60
2018-09-20T06:35:59.442Z,17.64
2018-09-20T06:36:59.534Z,17.64
2018-09-20T06:37:59.435Z,17.59
2018-09-20T06:39:07.650Z,17.63
2018-09-20T06:39:59.434Z,17.64
2018-09-20T06:40:59.458Z,17.65
2018-09-20T06:41:59.406Z,17.64
2018-09-20T06:42:59.405Z,17.72
2018-09-20T06:43:59.393Z,17.63
2018-09-20T06:44:59.348Z,17.74
2018-09-20T06:45:59.435Z,17.72
2018-09-20T06:46:59.346Z,17.64
2018-09-20T06:47:59.321Z,17.70
2018-09-20T06:48:59.421Z,17.72
2018-09-20T06:49:59.462Z,17.78
2018-09-20T06:50:59.302Z,17.82
2018-09-20T06:51:59.369Z,17.89
2018-09-20T06:52:59.255Z,18.00
2018-09-20T06:54:09.128Z,17.94
2018-09-20T06:54:59.267Z,17.98
2018-09-20T06:55:59.224Z,18.13
2018-09-20T06:56:59.373Z,18.15
2018-09-20T06:57:59.414Z,18.11
2018-09-20T06:58:59.418Z,18.08
2018-09-20T06:59:59.409Z,18.22
2018-09-20T07:00:59.171Z,18.19
2018-09-20T07:01:59.211Z,18.20
2018-09-20T07:02:59.319Z,18.20
2018-09-20T07:03:59.160Z,18.31
2018-09-20T07:04:59.119Z,18.29
2018-09-20T07:05:59.319Z,18.28
2018-09-20T07:06:59.098Z,18.40
2018-09-20T07:07:59.086Z,18.43
2018-09-20T07:08:59.075Z,18.41
2018-09-20T07:09:59.113Z,18.38
2018-09-20T07:10:59.205Z,18.38
2018-09-20T07:11:59.162Z,18.40
2018-09-20T07:13:07.218Z,18.44
2018-09-20T07:13:59.342Z,18.50
2018-09-20T07:14:59.053Z,18.50
2018-09-20T07:15:59.997Z,18.44
2018-09-20T07:16:59.268Z,18.44
2018-09-20T07:17:59.026Z,18.47
2018-09-20T07:18:59.021Z,18.43
2018-09-20T07:19:59.307Z,18.47
2018-09-20T07:20:58.945Z,18.60
2018-09-20T07:21:58.955Z,18.55
2018-09-20T07:22:58.950Z,18.62
2018-09-20T07:23:58.911Z,18.66
2018-09-20T07:24:59.081Z,18.75
2018-09-20T07:25:58.892Z,18.75
2018-09-20T07:26:58.878Z,18.66
2018-09-20T07:27:58.883Z,18.70
2018-09-20T07:28:58.889Z,18.80
2018-09-20T07:29:58.845Z,18.77
2018-09-20T07:30:58.832Z,18.73
2018-09-20T07:31:58.829Z,18.77
2018-09-20T07:32:58.820Z,18.89
2018-09-20T07:34:08.334Z,18.93
2018-09-20T07:34:58.837Z,18.90
2018-09-20T07:35:59.025Z,18.92
2018-09-20T07:37:13.433Z,18.81
2018-09-20T07:37:58.832Z,18.83
2018-09-20T07:38:59.050Z,18.95
2018-09-20T07:39:58.872Z,18.96
2018-09-20T07:40:58.753Z,19.02
2018-09-20T07:41:58.895Z,19.07
2018-09-20T07:42:58.768Z,19.09
2018-09-20T07:43:58.757Z,19.18
2018-09-20T07:44:58.681Z,19.29
2018-09-20T07:45:58.722Z,19.29
2018-09-20T07:46:58.669Z,19.40
2018-09-20T07:47:58.653Z,19.47
2018-09-20T07:48:58.688Z,19.48
2018-09-20T07:49:58.658Z,19.51
2018-09-20T07:50:58.615Z,19.62
2018-09-20T07:51:58.618Z,19.70
2018-09-20T07:52:58.593Z,19.76
2018-09-20T07:53:58.915Z,19.76
2018-09-20T07:54:58.730Z,19.77
2018-09-20T07:56:06.255Z,19.81
2018-09-20T07:56:58.601Z,19.73
2018-09-20T07:57:58.676Z,19.81
2018-09-20T07:58:58.678Z,19.84
2018-09-20T07:59:58.571Z,19.82
2018-09-20T08:00:58.594Z,19.89
2018-09-20T08:01:58.675Z,19.86
2018-09-20T08:02:58.503Z,19.91
2018-09-20T08:03:58.523Z,19.95
2018-09-20T08:04:58.460Z,19.85
2018-09-20T08:05:58.452Z,19.94
2018-09-20T08:06:58.538Z,20.02
2018-09-20T08:07:58.466Z,20.19
2018-09-20T08:08:58.441Z,20.21
2018-09-20T08:09:58.407Z,20.18
2018-09-20T08:10:58.393Z,20.25
2018-09-20T08:11:58.383Z,20.14
2018-09-20T08:12:58.441Z,20.02
2018-09-20T08:13:58.360Z,20.13
2018-09-20T08:15:07.780Z,20.40
2018-09-20T08:15:58.416Z,20.55
2018-09-20T08:16:58.518Z,20.72
2018-09-20T08:17:58.446Z,20.77
2018-09-20T08:18:58.341Z,20.84
2018-09-20T08:19:58.333Z,20.93
2018-09-20T08:20:58.303Z,20.92
2018-09-20T08:21:58.291Z,20.84
2018-09-20T08:22:58.267Z,20.72
2018-09-20T08:23:58.251Z,20.59
2018-09-20T08:24:58.285Z,20.65
2018-09-20T08:25:58.444Z,20.92
2018-09-20T08:26:59.241Z,21.07
2018-09-20T08:27:58.286Z,21.14
2018-09-20T08:28:58.576Z,21.25
2018-09-20T08:29:58.184Z,21.27
2018-09-20T08:30:58.172Z,21.15
2018-09-20T08:31:58.175Z,21.32
2018-09-20T08:32:58.217Z,21.46
2018-09-20T08:33:58.148Z,21.39
2018-09-20T08:35:06.133Z,21.37
2018-09-20T08:35:58.148Z,21.45
2018-09-20T08:36:58.110Z,21.33
2018-09-20T08:37:58.186Z,21.40
2018-09-20T08:38:58.105Z,21.39
2018-09-20T08:39:58.075Z,21.43
2018-09-20T08:40:58.437Z,21.46
2018-09-20T08:41:58.062Z,21.48
2018-09-20T08:42:58.042Z,21.51
2018-09-20T08:43:58.114Z,21.54
2018-09-20T08:44:58.032Z,21.70
2018-09-20T08:45:58.012Z,21.72
2018-09-20T08:46:58.040Z,21.75
2018-09-20T08:47:58.692Z,21.76
2018-09-20T08:48:58.094Z,21.82
2018-09-20T08:49:58.245Z,21.70
2018-09-20T08:50:58.006Z,21.85
2018-09-20T08:51:57.989Z,21.80
2018-09-20T08:52:57.929Z,21.82
2018-09-20T08:54:07.449Z,21.88
2018-09-20T08:54:58.189Z,21.95
2018-09-20T08:55:57.923Z,22.00
2018-09-20T08:56:58.253Z,21.83
2018-09-20T08:57:58.380Z,21.73
2018-09-20T08:58:57.963Z,21.72
2018-09-20T08:59:58.330Z,21.77
2018-09-20T09:00:57.882Z,21.73
2018-09-20T09:01:57.832Z,21.88
2018-09-20T09:02:57.877Z,21.98
2018-09-20T09:03:57.980Z,21.92
2018-09-20T09:04:57.989Z,21.98
2018-09-20T09:05:57.804Z,22.10
2018-09-20T09:06:57.773Z,22.25
2018-09-20T09:07:57.785Z,22.18
2018-09-20T09:08:57.784Z,22.26
2018-09-20T09:09:57.739Z,22.11
2018-09-20T09:10:57.726Z,22.00
2018-09-20T09:11:57.887Z,21.91
2018-09-20T09:13:06.926Z,21.85
2018-09-20T09:13:57.734Z,21.92
2018-09-20T09:14:57.738Z,21.92
2018-09-20T09:15:57.725Z,21.95
2018-09-20T09:16:57.789Z,21.95
2018-09-20T09:17:57.831Z,21.82
2018-09-20T09:18:57.710Z,21.93
2018-09-20T09:19:57.791Z,21.88
2018-09-20T09:20:57.621Z,21.92
2018-09-20T09:21:57.609Z,21.92
2018-09-20T09:22:57.629Z,21.96
2018-09-20T09:23:57.589Z,22.08
2018-09-20T09:24:57.587Z,22.18
2018-09-20T09:25:57.608Z,22.26
2018-09-20T09:26:57.562Z,22.29
2018-09-20T09:27:57.539Z,22.35
2018-09-20T09:28:57.534Z,22.43
2018-09-20T09:29:57.517Z,22.48
2018-09-20T09:30:57.556Z,22.39
2018-09-20T09:31:57.496Z,22.45
2018-09-20T09:33:06.672Z,22.41
2018-09-20T09:33:57.515Z,22.36
2018-09-20T09:34:57.522Z,22.44
2018-09-20T09:35:57.460Z,22.41
2018-09-20T09:36:57.442Z,22.59
2018-09-20T09:37:57.499Z,22.66
2018-09-20T09:38:57.457Z,22.48
2018-09-20T09:39:57.406Z,22.36
2018-09-20T09:40:57.413Z,22.29
2018-09-20T09:41:57.424Z,22.33
2018-09-20T09:42:57.414Z,22.38
2018-09-20T09:43:57.367Z,22.47
2018-09-20T09:44:57.351Z,22.44
2018-09-20T09:45:57.338Z,22.50
2018-09-20T09:47:09.489Z,22.53
2018-09-20T09:47:57.328Z,22.60
2018-09-20T09:48:57.338Z,22.76
2018-09-20T09:49:57.298Z,22.80
2018-09-20T09:50:57.285Z,22.90
2018-09-20T09:51:57.341Z,23.02
2018-09-20T09:52:57.327Z,23.12
2018-09-20T09:53:57.253Z,23.10
2018-09-20T09:54:57.241Z,23.28
2018-09-20T09:55:57.280Z,23.46
2018-09-20T09:56:57.590Z,23.34
2018-09-20T09:57:57.250Z,23.54
2018-09-20T09:58:57.416Z,23.58
2018-09-20T09:59:57.288Z,23.62
2018-09-20T10:00:57.430Z,23.51
2018-09-20T10:01:57.159Z,23.61
2018-09-20T10:02:57.180Z,23.50
2018-09-20T10:03:57.138Z,23.69
2018-09-20T10:04:57.141Z,23.88
2018-09-20T10:05:57.150Z,24.02
2018-09-20T10:06:57.147Z,23.99
2018-09-20T10:07:57.119Z,24.02
2018-09-20T10:08:57.097Z,24.03
2018-09-20T10:10:08.172Z,23.86
2018-09-20T10:10:57.061Z,23.80
2018-09-20T10:11:57.241Z,23.76
2018-09-20T10:12:57.369Z,23.73
2018-09-20T10:13:57.157Z,23.69
2018-09-20T10:14:57.318Z,23.91
2018-09-20T10:15:57.091Z,23.95
2018-09-20T10:16:56.998Z,23.98
2018-09-20T10:17:56.986Z,24.20
2018-09-20T10:18:57.039Z,24.23
2018-09-20T10:19:57.069Z,24.17
2018-09-20T10:20:56.989Z,24.28
2018-09-20T10:21:57.134Z,24.28
2018-09-20T10:22:56.937Z,24.18
2018-09-20T10:23:56.989Z,23.91
2018-09-20T10:24:56.910Z,23.91
2018-09-20T10:25:57.300Z,24.14
2018-09-20T10:26:56.884Z,24.18
2018-09-20T10:27:56.937Z,24.17
2018-09-20T10:29:05.066Z,24.23
2018-09-20T10:29:56.902Z,24.29
2018-09-20T10:30:56.875Z,24.30
2018-09-20T10:31:56.903Z,24.14
2018-09-20T10:32:56.821Z,23.98
2018-09-20T10:33:56.839Z,23.99
2018-09-20T10:34:56.897Z,24.01
2018-09-20T10:35:56.788Z,24.14
2018-09-20T10:36:56.777Z,24.18
2018-09-20T10:37:56.957Z,24.24
2018-09-20T10:38:56.921Z,24.16
2018-09-20T10:39:56.803Z,24.13
2018-09-20T10:40:56.733Z,24.24
2018-09-20T10:41:56.789Z,24.33
2018-09-20T10:42:56.762Z,24.35
2018-09-20T10:43:56.700Z,24.30
2018-09-20T10:44:56.729Z,24.33
2018-09-20T10:45:56.697Z,24.18
2018-09-20T10:46:56.925Z,24.13
2018-09-20T10:47:56.655Z,24.05
2018-09-20T10:49:05.858Z,23.92
2018-09-20T10:49:56.713Z,23.95
2018-09-20T10:50:56.624Z,24.03
2018-09-20T10:51:56.777Z,24.13
2018-09-20T10:52:56.683Z,24.02
2018-09-20T10:53:56.595Z,23.91
2018-09-20T10:54:56.624Z,23.86
2018-09-20T10:55:56.621Z,23.88
2018-09-20T10:56:56.738Z,23.77
2018-09-20T10:57:56.854Z,23.62
2018-09-20T10:58:56.601Z,23.65
2018-09-20T10:59:56.523Z,23.58
2018-09-20T11:00:56.576Z,23.61
2018-09-20T11:01:56.533Z,23.56
2018-09-20T11:02:56.563Z,23.50
2018-09-20T11:03:56.492Z,23.62
2018-09-20T11:04:56.509Z,23.51
2018-09-20T11:05:56.471Z,23.47
2018-09-20T11:06:56.449Z,23.43
2018-09-20T11:08:04.632Z,23.47
2018-09-20T11:08:56.545Z,23.44
2018-09-20T11:09:56.461Z,23.32
2018-09-20T11:10:56.775Z,23.34
2018-09-20T11:11:56.494Z,23.28
2018-09-20T11:12:56.425Z,23.43
2018-09-20T11:13:56.380Z,23.41
2018-09-20T11:14:56.412Z,23.24
2018-09-20T11:15:56.608Z,23.32
2018-09-20T11:16:56.337Z,23.24
2018-09-20T11:17:56.340Z,23.10
2018-09-20T11:18:56.353Z,23.23
2018-09-20T11:19:56.302Z,23.34
2018-09-20T11:20:56.293Z,23.34
2018-09-20T11:21:56.321Z,23.28
2018-09-20T11:22:56.272Z,23.31
2018-09-20T11:23:56.316Z,23.25
2018-09-20T11:24:56.249Z,23.27
2018-09-20T11:25:56.323Z,23.17
2018-09-20T11:27:04.064Z,23.28
2018-09-20T11:27:56.583Z,23.50
2018-09-20T11:28:56.205Z,23.61
2018-09-20T11:29:56.269Z,23.48
2018-09-20T11:30:56.424Z,23.43
2018-09-20T11:31:56.477Z,23.37
2018-09-20T11:32:56.205Z,23.54
2018-09-20T11:33:56.200Z,23.55
2018-09-20T11:34:56.134Z,23.59
2018-09-20T11:35:56.136Z,23.83
2018-09-20T11:36:56.145Z,23.78
2018-09-20T11:37:56.198Z,23.87
2018-09-20T11:38:56.096Z,24.14
2018-09-20T11:39:56.078Z,24.26
2018-09-20T11:40:56.127Z,24.03
2018-09-20T11:41:56.128Z,24.17
2018-09-20T11:42:56.047Z,24.39
2018-09-20T11:43:56.033Z,24.45
2018-09-20T11:44:56.186Z,24.48
2018-09-20T11:45:56.198Z,24.57
2018-09-20T11:47:06.063Z,24.69
2018-09-20T11:47:55.999Z,24.85
2018-09-20T11:48:56.221Z,24.80
2018-09-20T11:49:55.983Z,24.89
2018-09-20T11:50:55.961Z,24.99
2018-09-20T11:51:55.994Z,24.96
2018-09-20T11:52:55.950Z,25.06
2018-09-20T11:53:56.133Z,25.26
2018-09-20T11:54:56.014Z,25.23
2018-09-20T11:55:56.042Z,25.17
2018-09-20T11:56:55.900Z,25.16
2018-09-20T11:57:55.986Z,25.07
2018-09-20T11:58:55.933Z,25.17
2018-09-20T11:59:55.859Z,25.29
2018-09-20T12:00:55.855Z,25.26
2018-09-20T12:01:55.893Z,25.11
2018-09-20T12:02:55.827Z,25.03
2018-09-20T12:03:55.832Z,24.89
2018-09-20T12:04:55.837Z,24.81
2018-09-20T12:06:06.215Z,24.73
2018-09-20T12:06:55.832Z,24.84
2018-09-20T12:07:55.802Z,24.96
2018-09-20T12:08:55.801Z,24.92
2018-09-20T12:09:55.864Z,24.78
2018-09-20T12:10:56.061Z,24.77
2018-09-20T12:11:55.930Z,24.65
2018-09-20T12:12:55.720Z,24.77
2018-09-20T12:13:55.744Z,24.89
2018-09-20T12:14:55.695Z,24.85
2018-09-20T12:15:55.701Z,24.68
2018-09-20T12:16:55.706Z,24.76
2018-09-20T12:17:55.668Z,24.81
2018-09-20T12:18:55.828Z,24.78
2018-09-20T12:19:55.720Z,24.66
2018-09-20T12:20:55.631Z,24.60
2018-09-20T12:21:55.634Z,24.60
2018-09-20T12:22:55.710Z,24.61
2018-09-20T12:23:55.601Z,24.68
2018-09-20T12:25:05.842Z,24.65
2018-09-20T12:25:55.722Z,24.51
2018-09-20T12:26:55.637Z,24.55
2018-09-20T12:27:55.597Z,24.40
2018-09-20T12:28:55.647Z,24.39
2018-09-20T12:29:55.634Z,24.42
2018-09-20T12:30:55.723Z,24.47
2018-09-20T12:31:55.609Z,24.55
2018-09-20T12:32:55.504Z,24.58
2018-09-20T12:33:55.722Z,24.57
2018-09-20T12:34:55.485Z,24.54
2018-09-20T12:35:55.483Z,24.51
2018-09-20T12:36:55.616Z,24.54
2018-09-20T12:37:55.459Z,24.57
2018-09-20T12:38:55.521Z,24.70
2018-09-20T12:39:55.602Z,24.76
2018-09-20T12:40:55.413Z,24.78
2018-09-20T12:41:55.405Z,24.73
2018-09-20T12:42:55.509Z,24.61
2018-09-20T12:43:55.387Z,24.60
2018-09-20T12:45:03.617Z,24.77
2018-09-20T12:45:55.396Z,24.95
2018-09-20T12:46:55.393Z,24.96
2018-09-20T12:47:55.413Z,24.99
2018-09-20T12:48:55.456Z,24.78
2018-09-20T12:49:55.649Z,24.96
2018-09-20T12:50:55.362Z,25.10
2018-09-20T12:51:55.293Z,24.95
2018-09-20T12:52:55.528Z,24.99
2018-09-20T12:53:55.276Z,25.18
2018-09-20T12:54:55.273Z,25.26